sensor_id;sensor_type;location;lat;lon;timestamp;temperature;humidity
484;DHT22;228;48.922;12.198;2022-11-12T00:00:52;10.40;72.70
484;DHT22;228;48.922;12.198;2022-11-12T00:03:37;10.50;72.50
484;DHT22;228;48.922;12.198;2022-11-12T00:06:22;10.40;72.60
484;DHT22;228;48.922;12.198;2022-11-12T00:09:07;10.20;73.50
484;DHT22;228;48.922;12.198;2022-11-12T00:11:52;10.10;73.80
484;DHT22;228;48.922;12.198;2022-11-12T00:14:36;10.40;73.30
484;DHT22;228;48.922;12.198;2022-11-12T00:17:21;10.40;72.10
484;DHT22;228;48.922;12.198;2022-11-12T00:20:07;10.50;72.70
484;DHT22;228;48.922;12.198;2022-11-12T00:22:51;10.50;72.10
484;DHT22;228;48.922;12.198;2022-11-12T00:25:36;10.40;72.30
484;DHT22;228;48.922;12.198;2022-11-12T00:28:21;10.20;72.30
484;DHT22;228;48.922;12.198;2022-11-12T00:31:07;10.20;72.60
484;DHT22;228;48.922;12.198;2022-11-12T00:33:53;10.20;72.80
484;DHT22;228;48.922;12.198;2022-11-12T00:36:38;10.20;72.50
484;DHT22;228;48.922;12.198;2022-11-12T00:39:23;10.00;73.10
484;DHT22;228;48.922;12.198;2022-11-12T00:42:08;10.30;72.40
484;DHT22;228;48.922;12.198;2022-11-12T00:44:52;10.50;71.60
484;DHT22;228;48.922;12.198;2022-11-12T00:47:37;10.50;71.60
484;DHT22;228;48.922;12.198;2022-11-12T00:50:21;10.30;71.90
484;DHT22;228;48.922;12.198;2022-11-12T00:53:07;10.00;72.50
484;DHT22;228;48.922;12.198;2022-11-12T00:55:51;9.80;74.80
484;DHT22;228;48.922;12.198;2022-11-12T00:58:36;9.90;74.80
484;DHT22;228;48.922;12.198;2022-11-12T01:01:21;10.00;74.10
484;DHT22;228;48.922;12.198;2022-11-12T01:04:06;10.10;72.60
484;DHT22;228;48.922;12.198;2022-11-12T01:06:50;9.80;74.90
484;DHT22;228;48.922;12.198;2022-11-12T01:09:35;9.80;74.80
484;DHT22;228;48.922;12.198;2022-11-12T01:12:20;9.30;75.30
484;DHT22;228;48.922;12.198;2022-11-12T01:15:06;9.50;75.00
484;DHT22;228;48.922;12.198;2022-11-12T01:17:51;9.80;74.00
484;DHT22;228;48.922;12.198;2022-11-12T01:20:37;9.90;73.20
484;DHT22;228;48.922;12.198;2022-11-12T01:23:22;9.90;74.10
484;DHT22;228;48.922;12.198;2022-11-12T01:26:09;9.90;73.00
484;DHT22;228;48.922;12.198;2022-11-12T01:28:56;10.00;72.10
484;DHT22;228;48.922;12.198;2022-11-12T01:31:40;10.30;71.50
484;DHT22;228;48.922;12.198;2022-11-12T01:34:25;10.40;70.20
484;DHT22;228;48.922;12.198;2022-11-12T01:37:10;10.40;70.10
484;DHT22;228;48.922;12.198;2022-11-12T01:39:54;10.20;70.50
484;DHT22;228;48.922;12.198;2022-11-12T01:42:39;10.30;71.20
484;DHT22;228;48.922;12.198;2022-11-12T01:45:23;10.40;71.00
484;DHT22;228;48.922;12.198;2022-11-12T01:48:27;10.60;70.90
484;DHT22;228;48.922;12.198;2022-11-12T01:51:15;10.20;71.30
484;DHT22;228;48.922;12.198;2022-11-12T01:54:05;10.20;71.40
484;DHT22;228;48.922;12.198;2022-11-12T01:56:51;10.30;71.40
484;DHT22;228;48.922;12.198;2022-11-12T01:59:44;10.50;70.80
484;DHT22;228;48.922;12.198;2022-11-12T02:02:32;10.60;70.10
484;DHT22;228;48.922;12.198;2022-11-12T02:05:18;10.40;70.80
484;DHT22;228;48.922;12.198;2022-11-12T02:08:05;10.30;71.50
484;DHT22;228;48.922;12.198;2022-11-12T02:10:51;10.40;71.60
484;DHT22;228;48.922;12.198;2022-11-12T02:13:35;10.20;72.20
484;DHT22;228;48.922;12.198;2022-11-12T02:16:44;10.30;72.50
484;DHT22;228;48.922;12.198;2022-11-12T02:19:29;10.30;71.50
484;DHT22;228;48.922;12.198;2022-11-12T02:22:13;9.90;74.20
484;DHT22;228;48.922;12.198;2022-11-12T02:24:58;10.10;72.50
484;DHT22;228;48.922;12.198;2022-11-12T02:27:44;10.30;72.10
484;DHT22;228;48.922;12.198;2022-11-12T02:30:37;10.40;71.60
484;DHT22;228;48.922;12.198;2022-11-12T02:33:32;10.60;70.90
484;DHT22;228;48.922;12.198;2022-11-12T02:36:17;10.50;70.60
484;DHT22;228;48.922;12.198;2022-11-12T02:39:03;10.50;70.90
484;DHT22;228;48.922;12.198;2022-11-12T02:41:48;10.40;71.20
484;DHT22;228;48.922;12.198;2022-11-12T02:44:32;10.40;71.70
484;DHT22;228;48.922;12.198;2022-11-12T02:47:17;10.40;71.80
484;DHT22;228;48.922;12.198;2022-11-12T02:50:03;10.50;71.00
484;DHT22;228;48.922;12.198;2022-11-12T02:52:48;10.60;70.00
484;DHT22;228;48.922;12.198;2022-11-12T02:55:33;10.70;70.10
484;DHT22;228;48.922;12.198;2022-11-12T02:58:17;10.60;70.00
484;DHT22;228;48.922;12.198;2022-11-12T03:01:02;10.70;70.20
484;DHT22;228;48.922;12.198;2022-11-12T03:03:47;10.70;69.80
484;DHT22;228;48.922;12.198;2022-11-12T03:06:31;10.70;70.00
484;DHT22;228;48.922;12.198;2022-11-12T03:09:16;10.80;69.80
484;DHT22;228;48.922;12.198;2022-11-12T03:12:00;10.80;69.60
484;DHT22;228;48.922;12.198;2022-11-12T03:14:45;10.80;69.30
484;DHT22;228;48.922;12.198;2022-11-12T03:17:30;10.90;69.40
484;DHT22;228;48.922;12.198;2022-11-12T03:20:15;10.90;69.40
484;DHT22;228;48.922;12.198;2022-11-12T03:23:02;10.60;70.00
484;DHT22;228;48.922;12.198;2022-11-12T03:25:48;10.60;70.70
484;DHT22;228;48.922;12.198;2022-11-12T03:28:33;10.70;70.40
484;DHT22;228;48.922;12.198;2022-11-12T03:31:18;10.80;70.20
484;DHT22;228;48.922;12.198;2022-11-12T03:34:02;10.70;70.20
484;DHT22;228;48.922;12.198;2022-11-12T03:36:47;10.70;69.60
484;DHT22;228;48.922;12.198;2022-11-12T03:39:32;10.20;70.80
484;DHT22;228;48.922;12.198;2022-11-12T03:42:16;10.10;72.10
484;DHT22;228;48.922;12.198;2022-11-12T03:45:01;10.00;72.90
484;DHT22;228;48.922;12.198;2022-11-12T03:47:48;10.20;72.30
484;DHT22;228;48.922;12.198;2022-11-12T03:50:34;10.40;71.50
484;DHT22;228;48.922;12.198;2022-11-12T03:53:19;10.50;71.20
484;DHT22;228;48.922;12.198;2022-11-12T03:56:04;10.60;70.60
484;DHT22;228;48.922;12.198;2022-11-12T03:58:49;10.60;70.30
484;DHT22;228;48.922;12.198;2022-11-12T04:01:34;10.60;69.70
484;DHT22;228;48.922;12.198;2022-11-12T04:04:18;10.50;70.30
484;DHT22;228;48.922;12.198;2022-11-12T04:07:03;10.50;70.50
484;DHT22;228;48.922;12.198;2022-11-12T04:10:06;10.30;71.00
484;DHT22;228;48.922;12.198;2022-11-12T04:12:51;9.90;73.10
484;DHT22;228;48.922;12.198;2022-11-12T04:16:01;9.10;76.00
484;DHT22;228;48.922;12.198;2022-11-12T04:19:11;8.80;77.80
484;DHT22;228;48.922;12.198;2022-11-12T04:22:15;8.80;78.20
484;DHT22;228;48.922;12.198;2022-11-12T04:24:59;9.00;76.50
484;DHT22;228;48.922;12.198;2022-11-12T04:28:03;9.30;76.40
484;DHT22;228;48.922;12.198;2022-11-12T04:30:47;9.60;75.10
484;DHT22;228;48.922;12.198;2022-11-12T04:33:32;9.10;75.30
484;DHT22;228;48.922;12.198;2022-11-12T04:36:16;8.60;77.60
484;DHT22;228;48.922;12.198;2022-11-12T04:39:01;8.50;78.30
484;DHT22;228;48.922;12.198;2022-11-12T04:41:46;8.50;77.90
484;DHT22;228;48.922;12.198;2022-11-12T04:44:49;8.10;78.60
484;DHT22;228;48.922;12.198;2022-11-12T04:47:42;8.60;79.00
484;DHT22;228;48.922;12.198;2022-11-12T04:50:27;9.00;76.50
484;DHT22;228;48.922;12.198;2022-11-12T04:53:12;9.40;75.80
484;DHT22;228;48.922;12.198;2022-11-12T04:55:58;9.10;75.30
484;DHT22;228;48.922;12.198;2022-11-12T04:58:42;8.50;76.00
484;DHT22;228;48.922;12.198;2022-11-12T05:01:27;8.40;77.40
484;DHT22;228;48.922;12.198;2022-11-12T05:04:12;8.20;78.40
484;DHT22;228;48.922;12.198;2022-11-12T05:06:57;8.50;78.30
484;DHT22;228;48.922;12.198;2022-11-12T05:09:42;8.80;77.40
484;DHT22;228;48.922;12.198;2022-11-12T05:12:27;9.00;76.50
484;DHT22;228;48.922;12.198;2022-11-12T05:15:12;9.10;75.70
484;DHT22;228;48.922;12.198;2022-11-12T05:17:56;8.90;75.90
484;DHT22;228;48.922;12.198;2022-11-12T05:20:41;9.10;76.50
484;DHT22;228;48.922;12.198;2022-11-12T05:23:26;9.20;75.60
484;DHT22;228;48.922;12.198;2022-11-12T05:26:10;9.20;75.00
484;DHT22;228;48.922;12.198;2022-11-12T05:28:55;8.90;76.40
484;DHT22;228;48.922;12.198;2022-11-12T05:31:40;8.80;76.30
484;DHT22;228;48.922;12.198;2022-11-12T05:34:25;8.50;77.20
484;DHT22;228;48.922;12.198;2022-11-12T05:37:11;8.70;77.60
484;DHT22;228;48.922;12.198;2022-11-12T05:39:56;8.80;76.70
484;DHT22;228;48.922;12.198;2022-11-12T05:42:41;8.80;76.30
484;DHT22;228;48.922;12.198;2022-11-12T05:45:26;9.10;76.00
484;DHT22;228;48.922;12.198;2022-11-12T05:48:10;9.20;75.20
484;DHT22;228;48.922;12.198;2022-11-12T05:50:55;9.00;75.30
484;DHT22;228;48.922;12.198;2022-11-12T05:53:41;8.60;76.70
484;DHT22;228;48.922;12.198;2022-11-12T05:56:25;8.80;77.00
484;DHT22;228;48.922;12.198;2022-11-12T05:59:11;9.10;76.50
484;DHT22;228;48.922;12.198;2022-11-12T06:01:57;8.80;76.40
484;DHT22;228;48.922;12.198;2022-11-12T06:04:41;8.90;76.40
484;DHT22;228;48.922;12.198;2022-11-12T06:07:26;9.00;76.50
484;DHT22;228;48.922;12.198;2022-11-12T06:10:11;9.30;76.60
484;DHT22;228;48.922;12.198;2022-11-12T06:12:56;9.50;75.10
484;DHT22;228;48.922;12.198;2022-11-12T06:15:41;9.50;74.90
484;DHT22;228;48.922;12.198;2022-11-12T06:18:26;9.60;74.70
484;DHT22;228;48.922;12.198;2022-11-12T06:21:11;9.60;73.80
484;DHT22;228;48.922;12.198;2022-11-12T06:24:08;9.00;76.00
484;DHT22;228;48.922;12.198;2022-11-12T06:26:52;9.20;77.00
484;DHT22;228;48.922;12.198;2022-11-12T06:29:37;8.60;77.00
484;DHT22;228;48.922;12.198;2022-11-12T06:32:23;8.30;79.60
484;DHT22;228;48.922;12.198;2022-11-12T06:35:08;8.30;80.10
484;DHT22;228;48.922;12.198;2022-11-12T06:37:53;8.60;79.10
484;DHT22;228;48.922;12.198;2022-11-12T06:40:38;8.80;79.00
484;DHT22;228;48.922;12.198;2022-11-12T06:43:24;9.10;77.70
484;DHT22;228;48.922;12.198;2022-11-12T06:46:16;8.40;79.50
484;DHT22;228;48.922;12.198;2022-11-12T06:49:00;8.70;79.60
484;DHT22;228;48.922;12.198;2022-11-12T06:51:45;8.80;79.30
484;DHT22;228;48.922;12.198;2022-11-12T06:54:30;9.20;77.90
484;DHT22;228;48.922;12.198;2022-11-12T06:57:15;9.10;77.90
484;DHT22;228;48.922;12.198;2022-11-12T07:00:00;9.20;77.60
484;DHT22;228;48.922;12.198;2022-11-12T07:02:45;8.80;78.20
484;DHT22;228;48.922;12.198;2022-11-12T07:05:29;8.40;80.10
484;DHT22;228;48.922;12.198;2022-11-12T07:08:14;7.90;81.70
484;DHT22;228;48.922;12.198;2022-11-12T07:10:59;8.00;83.00
484;DHT22;228;48.922;12.198;2022-11-12T07:13:44;8.20;82.50
484;DHT22;228;48.922;12.198;2022-11-12T07:16:29;8.20;82.40
484;DHT22;228;48.922;12.198;2022-11-12T07:19:14;8.30;82.60
484;DHT22;228;48.922;12.198;2022-11-12T07:21:58;8.40;80.60
484;DHT22;228;48.922;12.198;2022-11-12T07:24:43;8.50;81.20
484;DHT22;228;48.922;12.198;2022-11-12T07:27:29;8.80;79.30
484;DHT22;228;48.922;12.198;2022-11-12T07:30:14;9.10;78.60
484;DHT22;228;48.922;12.198;2022-11-12T07:32:59;9.20;77.60
484;DHT22;228;48.922;12.198;2022-11-12T07:35:44;9.10;77.90
484;DHT22;228;48.922;12.198;2022-11-12T07:38:31;8.60;78.60
484;DHT22;228;48.922;12.198;2022-11-12T07:41:22;8.40;81.20
484;DHT22;228;48.922;12.198;2022-11-12T07:44:08;9.00;80.40
484;DHT22;228;48.922;12.198;2022-11-12T07:46:52;9.60;77.20
484;DHT22;228;48.922;12.198;2022-11-12T07:49:37;10.20;74.00
484;DHT22;228;48.922;12.198;2022-11-12T07:52:22;10.10;73.10
484;DHT22;228;48.922;12.198;2022-11-12T07:55:07;9.90;74.90
484;DHT22;228;48.922;12.198;2022-11-12T07:57:52;9.90;74.90
484;DHT22;228;48.922;12.198;2022-11-12T08:00:36;10.00;74.00
484;DHT22;228;48.922;12.198;2022-11-12T08:03:21;9.30;76.40
484;DHT22;228;48.922;12.198;2022-11-12T08:06:06;9.10;78.10
484;DHT22;228;48.922;12.198;2022-11-12T08:08:55;9.30;78.50
484;DHT22;228;48.922;12.198;2022-11-12T08:11:40;9.50;77.10
484;DHT22;228;48.922;12.198;2022-11-12T08:14:25;9.60;77.10
484;DHT22;228;48.922;12.198;2022-11-12T08:17:10;9.40;77.60
484;DHT22;228;48.922;12.198;2022-11-12T08:19:54;9.80;76.70
484;DHT22;228;48.922;12.198;2022-11-12T08:22:40;10.40;73.70
484;DHT22;228;48.922;12.198;2022-11-12T08:25:25;10.10;72.50
484;DHT22;228;48.922;12.198;2022-11-12T08:28:09;9.60;76.10
484;DHT22;228;48.922;12.198;2022-11-12T08:30:54;9.70;75.90
484;DHT22;228;48.922;12.198;2022-11-12T08:33:40;9.80;76.60
484;DHT22;228;48.922;12.198;2022-11-12T08:36:24;10.30;73.20
484;DHT22;228;48.922;12.198;2022-11-12T08:39:09;10.30;73.80
484;DHT22;228;48.922;12.198;2022-11-12T08:41:54;10.70;72.30
484;DHT22;228;48.922;12.198;2022-11-12T08:44:38;10.10;72.10
484;DHT22;228;48.922;12.198;2022-11-12T08:47:23;10.30;73.10
484;DHT22;228;48.922;12.198;2022-11-12T08:50:08;10.80;70.90
484;DHT22;228;48.922;12.198;2022-11-12T08:52:56;11.60;69.10
484;DHT22;228;48.922;12.198;2022-11-12T08:55:43;12.10;68.00
484;DHT22;228;48.922;12.198;2022-11-12T08:58:28;12.40;67.20
484;DHT22;228;48.922;12.198;2022-11-12T09:01:12;12.60;66.20
484;DHT22;228;48.922;12.198;2022-11-12T09:03:57;12.70;65.80
484;DHT22;228;48.922;12.198;2022-11-12T09:06:42;13.10;64.70
484;DHT22;228;48.922;12.198;2022-11-12T09:09:27;13.10;63.60
484;DHT22;228;48.922;12.198;2022-11-12T09:12:11;12.70;63.70
484;DHT22;228;48.922;12.198;2022-11-12T09:15:02;12.60;65.40
484;DHT22;228;48.922;12.198;2022-11-12T09:17:57;12.60;65.70
484;DHT22;228;48.922;12.198;2022-11-12T09:20:42;12.80;65.30
484;DHT22;228;48.922;12.198;2022-11-12T09:23:28;13.20;64.20
484;DHT22;228;48.922;12.198;2022-11-12T09:26:12;13.30;64.20
484;DHT22;228;48.922;12.198;2022-11-12T09:28:57;13.50;62.60
484;DHT22;228;48.922;12.198;2022-11-12T09:31:42;13.60;62.50
484;DHT22;228;48.922;12.198;2022-11-12T09:34:26;13.60;61.80
484;DHT22;228;48.922;12.198;2022-11-12T09:37:11;13.60;61.70
484;DHT22;228;48.922;12.198;2022-11-12T09:39:56;13.60;61.60
484;DHT22;228;48.922;12.198;2022-11-12T09:42:45;13.70;61.10
484;DHT22;228;48.922;12.198;2022-11-12T09:45:36;13.90;61.50
484;DHT22;228;48.922;12.198;2022-11-12T09:48:24;14.10;60.70
484;DHT22;228;48.922;12.198;2022-11-12T09:51:27;13.10;61.40
484;DHT22;228;48.922;12.198;2022-11-12T09:54:29;12.60;64.60
484;DHT22;228;48.922;12.198;2022-11-12T09:57:14;12.80;64.20
484;DHT22;228;48.922;12.198;2022-11-12T09:59:59;13.30;63.90
484;DHT22;228;48.922;12.198;2022-11-12T10:03:18;13.80;63.00
484;DHT22;228;48.922;12.198;2022-11-12T10:06:21;13.70;61.30
484;DHT22;228;48.922;12.198;2022-11-12T10:09:28;14.10;61.80
484;DHT22;228;48.922;12.198;2022-11-12T10:12:32;14.10;60.50
484;DHT22;228;48.922;12.198;2022-11-12T10:16:43;14.00;61.00
484;DHT22;228;48.922;12.198;2022-11-12T10:26:15;14.80;58.80
484;DHT22;228;48.922;12.198;2022-11-12T10:29:05;15.20;57.80
484;DHT22;228;48.922;12.198;2022-11-12T10:31:54;15.00;58.00
484;DHT22;228;48.922;12.198;2022-11-12T10:34:38;14.80;57.90
484;DHT22;228;48.922;12.198;2022-11-12T10:37:37;14.20;59.50
484;DHT22;228;48.922;12.198;2022-11-12T10:40:33;14.40;60.90
484;DHT22;228;48.922;12.198;2022-11-12T10:43:19;14.50;59.50
484;DHT22;228;48.922;12.198;2022-11-12T10:46:18;14.60;58.80
484;DHT22;228;48.922;12.198;2022-11-12T10:49:06;14.30;58.80
484;DHT22;228;48.922;12.198;2022-11-12T10:52:20;14.30;59.60
484;DHT22;228;48.922;12.198;2022-11-12T10:55:15;13.70;60.40
484;DHT22;228;48.922;12.198;2022-11-12T11:01:02;12.70;63.60
484;DHT22;228;48.922;12.198;2022-11-12T11:03:56;12.50;65.60
484;DHT22;228;48.922;12.198;2022-11-12T11:06:41;12.70;65.40
484;DHT22;228;48.922;12.198;2022-11-12T11:09:26;13.30;64.30
484;DHT22;228;48.922;12.198;2022-11-12T11:12:31;13.60;63.40
484;DHT22;228;48.922;12.198;2022-11-12T11:15:19;13.60;64.50
484;DHT22;228;48.922;12.198;2022-11-12T11:18:10;14.00;62.00
484;DHT22;228;48.922;12.198;2022-11-12T11:31:01;14.30;63.00
484;DHT22;228;48.922;12.198;2022-11-12T11:34:08;14.60;61.80
484;DHT22;228;48.922;12.198;2022-11-12T11:37:28;14.60;59.80
484;DHT22;228;48.922;12.198;2022-11-12T11:40:38;14.80;59.80
484;DHT22;228;48.922;12.198;2022-11-12T11:47:17;13.60;65.30
484;DHT22;228;48.922;12.198;2022-11-12T11:50:17;13.60;65.70
484;DHT22;228;48.922;12.198;2022-11-12T11:53:25;13.50;64.60
484;DHT22;228;48.922;12.198;2022-11-12T11:56:23;14.00;63.70
484;DHT22;228;48.922;12.198;2022-11-12T11:59:13;14.00;61.40
484;DHT22;228;48.922;12.198;2022-11-12T12:05:41;14.00;63.00
484;DHT22;228;48.922;12.198;2022-11-12T12:21:59;13.10;66.80
484;DHT22;228;48.922;12.198;2022-11-12T12:25:24;13.50;65.80
484;DHT22;228;48.922;12.198;2022-11-12T12:31:19;13.20;67.80
484;DHT22;228;48.922;12.198;2022-11-12T12:40:27;13.70;63.40
484;DHT22;228;48.922;12.198;2022-11-12T12:43:36;13.30;65.40
484;DHT22;228;48.922;12.198;2022-11-12T12:46:27;12.70;67.50
484;DHT22;228;48.922;12.198;2022-11-12T12:49:21;12.30;68.80
484;DHT22;228;48.922;12.198;2022-11-12T12:52:13;12.60;69.40
484;DHT22;228;48.922;12.198;2022-11-12T12:55:00;12.80;67.90
484;DHT22;228;48.922;12.198;2022-11-12T12:57:45;13.20;67.00
484;DHT22;228;48.922;12.198;2022-11-12T13:00:37;13.00;67.60
484;DHT22;228;48.922;12.198;2022-11-12T13:09:24;12.50;69.80
484;DHT22;228;48.922;12.198;2022-11-12T13:12:09;11.60;72.30
484;DHT22;228;48.922;12.198;2022-11-12T13:15:13;12.20;72.40
484;DHT22;228;48.922;12.198;2022-11-12T13:17:58;12.30;70.70
484;DHT22;228;48.922;12.198;2022-11-12T13:23:55;13.00;68.40
484;DHT22;228;48.922;12.198;2022-11-12T13:26:52;13.20;68.10
484;DHT22;228;48.922;12.198;2022-11-12T13:29:39;12.90;68.50
484;DHT22;228;48.922;12.198;2022-11-12T13:32:34;12.60;69.80
484;DHT22;228;48.922;12.198;2022-11-12T13:41:04;12.30;70.70
484;DHT22;228;48.922;12.198;2022-11-12T13:44:05;12.70;70.10
484;DHT22;228;48.922;12.198;2022-11-12T13:46:52;12.40;70.20
484;DHT22;228;48.922;12.198;2022-11-12T13:49:43;11.90;70.80
484;DHT22;228;48.922;12.198;2022-11-12T13:52:29;12.30;70.50
484;DHT22;228;48.922;12.198;2022-11-12T13:55:17;12.20;69.60
484;DHT22;228;48.922;12.198;2022-11-12T13:58:04;12.20;70.00
484;DHT22;228;48.922;12.198;2022-11-12T14:00:54;12.20;70.30
484;DHT22;228;48.922;12.198;2022-11-12T14:03:46;12.30;69.60
484;DHT22;228;48.922;12.198;2022-11-12T14:06:44;12.30;69.20
484;DHT22;228;48.922;12.198;2022-11-12T14:10:01;12.50;69.70
484;DHT22;228;48.922;12.198;2022-11-12T14:16:43;12.20;68.40
484;DHT22;228;48.922;12.198;2022-11-12T14:25:56;12.10;70.20
484;DHT22;228;48.922;12.198;2022-11-12T14:28:41;12.20;70.00
484;DHT22;228;48.922;12.198;2022-11-12T14:31:26;12.10;68.60
484;DHT22;228;48.922;12.198;2022-11-12T14:34:21;11.70;70.20
484;DHT22;228;48.922;12.198;2022-11-12T14:37:56;11.40;70.90
484;DHT22;228;48.922;12.198;2022-11-12T14:41:01;11.00;72.50
484;DHT22;228;48.922;12.198;2022-11-12T14:43:53;11.30;72.50
484;DHT22;228;48.922;12.198;2022-11-12T14:46:45;10.50;72.10
484;DHT22;228;48.922;12.198;2022-11-12T14:49:38;10.70;73.60
484;DHT22;228;48.922;12.198;2022-11-12T14:52:31;11.00;73.00
484;DHT22;228;48.922;12.198;2022-11-12T14:55:24;11.10;72.00
484;DHT22;228;48.922;12.198;2022-11-12T14:58:13;11.20;71.70
484;DHT22;228;48.922;12.198;2022-11-12T15:01:20;11.30;72.30
484;DHT22;228;48.922;12.198;2022-11-12T15:06:55;11.30;72.50
484;DHT22;228;48.922;12.198;2022-11-12T15:09:40;11.30;71.00
484;DHT22;228;48.922;12.198;2022-11-12T15:12:30;11.00;72.00
484;DHT22;228;48.922;12.198;2022-11-12T15:15:18;11.30;72.60
484;DHT22;228;48.922;12.198;2022-11-12T15:18:17;10.90;72.90
484;DHT22;228;48.922;12.198;2022-11-12T15:24:03;11.40;72.20
484;DHT22;228;48.922;12.198;2022-11-12T15:26:49;11.60;71.50
484;DHT22;228;48.922;12.198;2022-11-12T15:29:34;11.40;71.10
484;DHT22;228;48.922;12.198;2022-11-12T15:35:04;11.30;72.30
484;DHT22;228;48.922;12.198;2022-11-12T15:38:06;11.20;73.40
484;DHT22;228;48.922;12.198;2022-11-12T15:40:57;11.10;73.00
484;DHT22;228;48.922;12.198;2022-11-12T15:43:43;11.20;72.40
484;DHT22;228;48.922;12.198;2022-11-12T15:46:28;11.00;72.90
484;DHT22;228;48.922;12.198;2022-11-12T15:49:12;10.60;73.60
484;DHT22;228;48.922;12.198;2022-11-12T15:51:57;10.80;73.90
484;DHT22;228;48.922;12.198;2022-11-12T15:54:42;10.90;74.00
484;DHT22;228;48.922;12.198;2022-11-12T15:57:29;11.20;72.50
484;DHT22;228;48.922;12.198;2022-11-12T16:00:20;11.20;72.40
484;DHT22;228;48.922;12.198;2022-11-12T16:03:13;11.30;72.50
484;DHT22;228;48.922;12.198;2022-11-12T16:05:59;11.30;72.00
484;DHT22;228;48.922;12.198;2022-11-12T16:08:44;11.30;72.20
484;DHT22;228;48.922;12.198;2022-11-12T16:11:29;11.20;71.80
484;DHT22;228;48.922;12.198;2022-11-12T16:14:20;11.40;71.80
484;DHT22;228;48.922;12.198;2022-11-12T16:17:12;11.50;71.90
484;DHT22;228;48.922;12.198;2022-11-12T16:19:58;11.50;71.10
484;DHT22;228;48.922;12.198;2022-11-12T16:22:44;11.00;72.20
484;DHT22;228;48.922;12.198;2022-11-12T16:25:31;10.90;73.60
484;DHT22;228;48.922;12.198;2022-11-12T16:28:17;11.10;73.40
484;DHT22;228;48.922;12.198;2022-11-12T16:31:02;11.20;72.90
484;DHT22;228;48.922;12.198;2022-11-12T16:33:47;11.50;72.30
484;DHT22;228;48.922;12.198;2022-11-12T16:36:32;11.60;71.50
484;DHT22;228;48.922;12.198;2022-11-12T16:39:16;11.60;71.00
484;DHT22;228;48.922;12.198;2022-11-12T16:42:01;11.60;70.60
484;DHT22;228;48.922;12.198;2022-11-12T16:44:46;11.20;71.70
484;DHT22;228;48.922;12.198;2022-11-12T16:47:31;11.20;72.00
484;DHT22;228;48.922;12.198;2022-11-12T16:50:17;11.30;71.40
484;DHT22;228;48.922;12.198;2022-11-12T16:53:04;11.40;71.10
484;DHT22;228;48.922;12.198;2022-11-12T16:55:49;11.40;70.30
484;DHT22;228;48.922;12.198;2022-11-12T16:58:34;11.40;70.90
484;DHT22;228;48.922;12.198;2022-11-12T17:01:26;11.00;72.10
484;DHT22;228;48.922;12.198;2022-11-12T17:04:12;11.00;72.70
484;DHT22;228;48.922;12.198;2022-11-12T17:06:57;11.00;71.70
484;DHT22;228;48.922;12.198;2022-11-12T17:09:42;11.10;71.90
484;DHT22;228;48.922;12.198;2022-11-12T17:12:26;11.20;70.90
484;DHT22;228;48.922;12.198;2022-11-12T17:15:11;11.30;70.80
484;DHT22;228;48.922;12.198;2022-11-12T17:17:56;11.20;70.60
484;DHT22;228;48.922;12.198;2022-11-12T17:20:41;11.00;71.30
484;DHT22;228;48.922;12.198;2022-11-12T17:23:25;11.00;71.70
484;DHT22;228;48.922;12.198;2022-11-12T17:26:15;11.00;71.20
484;DHT22;228;48.922;12.198;2022-11-12T17:29:28;10.80;71.20
484;DHT22;228;48.922;12.198;2022-11-12T17:32:17;10.80;72.20
484;DHT22;228;48.922;12.198;2022-11-12T17:35:04;11.10;70.80
484;DHT22;228;48.922;12.198;2022-11-12T17:37:52;10.90;71.40
484;DHT22;228;48.922;12.198;2022-11-12T17:40:39;10.70;70.40
484;DHT22;228;48.922;12.198;2022-11-12T17:43:28;10.30;72.10
484;DHT22;228;48.922;12.198;2022-11-12T17:46:26;10.00;72.70
484;DHT22;228;48.922;12.198;2022-11-12T17:49:12;9.80;76.10
484;DHT22;228;48.922;12.198;2022-11-12T17:51:57;10.20;74.80
484;DHT22;228;48.922;12.198;2022-11-12T17:58:02;10.50;72.90
484;DHT22;228;48.922;12.198;2022-11-12T18:00:47;10.60;71.50
484;DHT22;228;48.922;12.198;2022-11-12T18:06:25;10.80;72.20
484;DHT22;228;48.922;12.198;2022-11-12T18:09:12;10.60;72.50
484;DHT22;228;48.922;12.198;2022-11-12T18:11:58;10.10;73.60
484;DHT22;228;48.922;12.198;2022-11-12T18:14:44;9.90;75.20
484;DHT22;228;48.922;12.198;2022-11-12T18:17:32;10.20;74.50
484;DHT22;228;48.922;12.198;2022-11-12T18:20:17;10.50;73.30
484;DHT22;228;48.922;12.198;2022-11-12T18:23:05;10.60;71.20
484;DHT22;228;48.922;12.198;2022-11-12T18:25:49;10.50;71.50
484;DHT22;228;48.922;12.198;2022-11-12T18:28:35;10.70;70.00
484;DHT22;228;48.922;12.198;2022-11-12T18:31:38;10.80;69.50
484;DHT22;228;48.922;12.198;2022-11-12T18:35:05;10.60;69.80
484;DHT22;228;48.922;12.198;2022-11-12T18:38:04;10.70;72.00
484;DHT22;228;48.922;12.198;2022-11-12T18:41:44;10.80;70.40
484;DHT22;228;48.922;12.198;2022-11-12T18:44:29;11.00;69.50
484;DHT22;228;48.922;12.198;2022-11-12T18:47:14;11.10;69.20
484;DHT22;228;48.922;12.198;2022-11-12T18:50:05;11.20;69.50
484;DHT22;228;48.922;12.198;2022-11-12T18:52:50;11.10;69.70
484;DHT22;228;48.922;12.198;2022-11-12T18:55:35;11.10;68.80
484;DHT22;228;48.922;12.198;2022-11-12T18:58:20;11.10;70.10
484;DHT22;228;48.922;12.198;2022-11-12T19:01:07;11.00;70.00
484;DHT22;228;48.922;12.198;2022-11-12T19:03:55;11.00;70.70
484;DHT22;228;48.922;12.198;2022-11-12T19:06:40;10.80;70.70
484;DHT22;228;48.922;12.198;2022-11-12T19:09:25;10.70;70.60
484;DHT22;228;48.922;12.198;2022-11-12T19:12:09;10.70;71.20
484;DHT22;228;48.922;12.198;2022-11-12T19:14:54;10.20;72.20
484;DHT22;228;48.922;12.198;2022-11-12T19:17:38;9.70;75.30
484;DHT22;228;48.922;12.198;2022-11-12T19:20:23;9.90;75.60
484;DHT22;228;48.922;12.198;2022-11-12T19:23:08;10.20;73.20
484;DHT22;228;48.922;12.198;2022-11-12T19:25:52;10.30;72.40
484;DHT22;228;48.922;12.198;2022-11-12T19:28:37;10.50;72.00
484;DHT22;228;48.922;12.198;2022-11-12T19:31:24;10.50;71.40
484;DHT22;228;48.922;12.198;2022-11-12T19:34:10;10.50;71.20
484;DHT22;228;48.922;12.198;2022-11-12T19:36:54;10.40;71.40
484;DHT22;228;48.922;12.198;2022-11-12T19:39:39;10.30;71.80
484;DHT22;228;48.922;12.198;2022-11-12T19:42:24;10.50;71.80
484;DHT22;228;48.922;12.198;2022-11-12T19:45:09;10.40;71.50
484;DHT22;228;48.922;12.198;2022-11-12T19:47:53;10.40;72.10
484;DHT22;228;48.922;12.198;2022-11-12T19:50:38;10.40;71.50
484;DHT22;228;48.922;12.198;2022-11-12T19:53:23;10.30;71.70
484;DHT22;228;48.922;12.198;2022-11-12T19:56:14;10.20;72.10
484;DHT22;228;48.922;12.198;2022-11-12T19:59:04;10.20;72.30
484;DHT22;228;48.922;12.198;2022-11-12T20:01:49;10.20;72.20
484;DHT22;228;48.922;12.198;2022-11-12T20:04:33;10.30;71.40
484;DHT22;228;48.922;12.198;2022-11-12T20:07:18;10.30;71.30
484;DHT22;228;48.922;12.198;2022-11-12T20:10:03;10.40;71.50
484;DHT22;228;48.922;12.198;2022-11-12T20:12:48;10.60;71.00